Aérodrome :
LOGIN :

S'inscrire | Disclaimer

   EN    FR    IT 

 










Légende :    VFR   VFR Marginal   IFR   IFR Intensif   IFR Très Intensif
Visi : 
Plafond : 
>= 8 km
>= 3000ft
5 à 8 km
1000 à 3000 ft
1500m à 5 km
500 à 1000 ft
800 à 1500m
200 à 500 ft
< 800m
< 200 ft
Symboles :   Orages  Brouillard  Fortes neiges  Fortes précipitations  Vent > 20 kt
SIGMETs :   Divers  Orages  Givrage  Turbulence  Onde Orograph.  Cendres Volcan.







- Altitude de l'aérodrome : 302 ft
- Code IATA : CGN


EDDK - Cologne Bonn

DERNIER METAR :
  • 141220Z 23011KT 9999 FEW009 SCT022 BKN026 05/02 Q0995 NOSIG

METARs EXPIRÉS :
  • 141150Z 23009KT 9999 -RA FEW009 SCT019 BKN022 04/02 Q0995 TEMPO SHRA
  • 141120Z 23016KT 9999 -SHRA FEW009 SCT013CB BKN019 04/02 Q0995 RESHRA TEMPO SHRA
  • 141050Z 22016G26KT 190V260 9999 -SHRA FEW011 FEW013TCU BKN022 05/01 Q0995 TEMPO SHRA
  • 141020Z 23016KT 9999 -SHRA FEW016 SCT026 BKN033 05/01 Q0996 TEMPO SHRA

TAF TAF EDDK
Valide du 14 à 12h jusqu'au 15 à 18h UTC


141100Z 1412/1518 23012KT 9999 BKN025
PROB30
TEMPO 1412/1415 25020G30KT SHRA BKN012CB
BECMG 1416/1419 17006KT
TEMPO 1421/1502 4000 SHRASN BKN015TCU
BECMG 1508/1511 27003KT
TEMPO 1508/1514 RA BKN012
Pas de NOTAMs connus pour ce terrain.



MET'MAP, la Météo Aéronautique d'un coup d'oeil ! - Copyright ORBIFLY Décembre 2007 - Disclaimer

ORBIFLY MET'MAP TEAM :

Programmation & Développement : Alexandra Zaïnal
Conception & Développement : Baudouin d'Aumeries
Co-Programmation & Développement : Marc-Olivier Méhu
Soutien technique & logistique : Manuel Goepfert

Contact : metmap@orbifly.com




SOURCES & CREDITS :

   NOAA